METAR Data
IDs: Format: Raw Decoded Include TAF

Data at: 0220 UTC 10 Dec 2022

METAR for:KVES (Versailles/Darke Cnt, OH, US)
Text:KVES 100150Z AUTO 03007KT 5SM BR BKN009 BKN016 OVC034 03/03 A3015 RMK AO2
Temperature: 3.0°C ( 37°F)
Dewpoint: 3.0°C ( 37°F) [RH = 100%]
Pressure (altimeter):30.15 inches Hg (1021.1 mb)
Winds:from the NNE (30 degrees) at 8 MPH (7 knots; 3.6 m/s)
Visibility: 5 sm ( 8 km)
Ceiling:900 feet AGL
Clouds: broken clouds at 900 feet AGL, broken clouds at 1600 feet AGL, overcast cloud deck at 3400 feet AGL
Weather:BR (mist)
QC Flag:automated observation with no human augmentation